Increasing Water Releases From Lewiston Dam Could Make Swimming Unsafe, Says Humboldt County Sheriff’s Department

A Yurok canoe on the Trinity River

A Yurok man in a canoe on the Trinity River c. 1907-1930. [Creator/Photographer: Edward S. Curtis ]

Press release from the Humboldt County Sheriff’s Office:

On May 1st, 2018 there will be an increase in the amount of water released from the Lewiston Dam, which will quickly effect the water levels of the Trinity River. The Sheriff’s Office is concerned that the increase in water levels on the Trinity River will make for unsafe swimming conditions. The increase in water flows is scheduled to continue through May 7th, 2018. Please use extra caution if you choose to be near the Trinity River during this time.

The water release schedule and amounts can be found below.

Project: Lewiston Dam

Please make the following water release changes to the Trinity River:

 

Date                Time             From (cfs)     To (cfs)

05/01/2018      0600             750               800  

05/01/2018      0800             800               850

05/01/2018      1800             850               800

05/01/2018      2000             800               750

05/02/2018      0001             750               800

05/02/2018      0400             800               850 

05/02/2018      0600             850               900  

05/02/2018      0800             900               950

05/02/2018      1800             950               900

05/02/2018      2000             900               850

05/02/2018      2200             850               800

05/03/2018      0200             800             1000

05/03/2018      0400           1000             1250 

05/03/2018      0600           1250             1350  

05/03/2018      0800           1350             1400

05/03/2018      1000           1400             1450

05/03/2018      1200           1450             1500

05/03/2018      1400           1500             1450

05/03/2018      1600           1450             1400

05/03/2018      1800           1400             1350

05/03/2018      2000           1350             1300

05/03/2018      2200           1300             1250 

05/04/2018      0200           1250             1350

05/04/2018      0400           1350             1450 

05/04/2018      0600           1450             1550  

05/04/2018      0800           1550             1650

05/04/2018      1000           1650             1700

05/04/2018      1400           1700             1650

05/04/2018      1600           1650             1600

05/04/2018      1800           1600             1550

05/04/2018      2000           1550             1500

05/04/2018      2200           1500             1450 

05/05/2018      0400           1450             1500 

05/05/2018      0600           1500             1600  

05/05/2018      0800           1600             1700

05/05/2018      1000           1700             1750

05/05/2018      1400           1750             1700

05/05/2018      1600           1700             1650

05/05/2018      1800           1650             1600

05/05/2018      2000           1600             1550

05/05/2018      2200           1550             1500 

05/06/2018      0001           1500             1450

05/06/2018      0200           1450             1400 

05/06/2018      0600           1400             1500  

05/06/2018      0800           1500             1600

05/06/2018      1000           1600             1650

05/06/2018      1200           1650             1700

05/06/2018      1600           1700             1650

05/06/2018      1800           1650             1600

05/06/2018      2000           1600             1550

05/06/2018      2200           1550             1500 

05/07/2018      0001           1500             1450

05/07/2018      0200           1450             1400

05/07/2018      0400           1400             1350  

05/07/2018      0800           1350             1500

05/07/2018      1000           1500             1550

05/07/2018      1200           1550             1600

05/07/2018      1400           1600             1550

05/07/2018      1600           1550             1500

05/07/2018      1800           1500             1450

05/07/2018      2000           1450             1400

05/07/2018      2200           1400             1350

  • Laytonville Rock
Facebooktwittergoogle_pluspinterestmail

3 comments

Leave a Reply

Your email address will not be published. Required fields are marked *